Time;durP1;ratioP1;P1;durP2;ratioP2;P2;SDS_P1;SDS_P2;PMS_P1;PMS_P2;Temp;Humidity;BMP_temperature;BMP_pressure;BME280_temperature;BME280_humidity;BME280_pressure;Samples;Min_cycle;Max_cycle;Signal;HPM_P1;HPM_P2
2024/01/30 00:00:19;;;;;;;0.20;0.20;;;;;;;0.94;57.22;98995.56;4968704;28;20517;-66
2024/01/30 00:02:46;;;;;;;0.20;0.20;;;;;;;1.05;57.64;99013.66;4969113;28;20086;-67
2024/01/30 00:05:13;;;;;;;0.20;0.20;;;;;;;1.15;56.54;99021.09;4968997;28;20591;-68
2024/01/30 00:07:40;;;;;;;0.20;0.20;;;;;;;1.12;56.00;99027.88;4967067;28;20284;-65
2024/01/30 00:10:07;;;;;;;0.20;0.20;;;;;;;1.16;55.90;99023.56;4972104;28;20575;-67
2024/01/30 00:12:34;;;;;;;0.20;0.20;;;;;;;-0.16;55.51;98809.28;4967264;28;20066;-66
2024/01/30 00:15:01;;;;;;;0.20;0.20;;;;;;;1.19;55.99;99041.31;4969023;28;20058;-67
2024/01/30 00:17:28;;;;;;;0.20;0.20;;;;;;;1.13;56.40;99043.19;4967353;28;20054;-67
2024/01/30 00:19:55;;;;;;;0.20;0.20;;;;;;;0.87;56.16;98978.59;4968742;28;20524;-65
2024/01/30 00:22:22;;;;;;;0.20;0.20;;;;;;;0.58;56.49;98954.63;4966922;28;20047;-66
2024/01/30 00:24:48;;;;;;;0.20;0.20;;;;;;;1.09;55.87;99052.97;4967210;28;20476;-68
2024/01/30 00:27:16;;;;;;;0.20;0.20;;;;;;;0.92;55.58;99030.47;4968458;28;20058;-67
2024/01/30 00:29:42;;;;;;;0.20;0.20;;;;;;;1.17;55.35;99038.84;4967107;28;20062;-68
2024/01/30 00:32:09;;;;;;;0.20;0.20;;;;;;;1.24;55.41;99047.66;4968718;28;20054;-67
2024/01/30 00:34:36;;;;;;;0.20;0.20;;;;;;;1.16;55.75;99048.13;4969006;28;20058;-68
2024/01/30 00:37:03;;;;;;;0.20;0.20;;;;;;;0.42;55.87;98937.31;4968077;28;20121;-67
2024/01/30 00:39:30;;;;;;;0.20;0.20;;;;;;;1.15;55.55;99051.13;4968433;28;20133;-68
2024/01/30 00:41:57;;;;;;;0.20;0.20;;;;;;;1.21;55.73;99042.72;4967774;28;20066;-68
2024/01/30 00:44:24;;;;;;;0.20;0.20;;;;;;;1.17;56.62;99057.97;4968553;28;20065;-68
2024/01/30 00:46:50;;;;;;;0.20;0.20;;;;;;;1.11;56.46;99039.91;4966269;28;20050;-67
2024/01/30 00:49:17;;;;;;;0.20;0.20;;;;;;;0.75;56.92;98999.78;4968038;28;20062;-67
2024/01/30 00:51:44;;;;;;;0.20;0.20;;;;;;;0.84;57.56;99025.47;4967776;28;20113;-67
2024/01/30 00:54:11;;;;;;;0.20;0.20;;;;;;;0.98;57.61;99048.50;4966818;28;20055;-67
2024/01/30 00:56:38;;;;;;;0.20;0.20;;;;;;;1.14;57.43;99055.75;4966602;28;20058;-67
2024/01/30 00:59:05;;;;;;;0.20;0.20;;;;;;;0.50;56.85;98971.44;4967765;28;20065;-68
2024/01/30 01:01:31;;;;;;;0.20;0.20;;;;;;;1.03;57.82;99048.56;4967864;28;20062;-68
2024/01/30 01:03:58;;;;;;;0.20;0.20;;;;;;;0.49;57.62;98965.16;4967659;28;20532;-67
2024/01/30 01:06:25;;;;;;;0.20;0.20;;;;;;;0.80;57.60;99016.19;4967683;28;20049;-67
2024/01/30 01:08:52;;;;;;;0.20;0.20;;;;;;;1.20;56.74;99054.69;4965886;28;20078;-67
2024/01/30 01:11:18;;;;;;;0.20;0.20;;;;;;;1.18;56.94;99039.69;4967743;28;20054;-68
2024/01/30 01:13:45;;;;;;;0.20;0.20;;;;;;;1.21;57.37;99056.38;4968257;28;20514;-68
2024/01/30 01:16:12;;;;;;;0.20;0.20;;;;;;;1.36;57.37;99053.72;4966206;28;20066;-68
2024/01/30 01:18:39;;;;;;;0.20;0.20;;;;;;;1.19;57.79;99053.06;4966293;28;20146;-68
2024/01/30 01:21:06;;;;;;;0.20;0.20;;;;;;;1.18;58.21;99040.50;4967068;28;20049;-69
2024/01/30 01:23:32;;;;;;;0.20;0.20;;;;;;;1.16;58.59;99050.84;4967264;28;20047;-68
2024/01/30 01:26:00;;;;;;;0.20;0.20;;;;;;;-1.27;58.58;98703.06;4965819;28;20702;-68
2024/01/30 01:28:27;;;;;;;0.20;0.20;;;;;;;0.59;59.55;98987.06;4982294;28;20057;-69
2024/01/30 01:30:58;;;;;;;0.20;0.20;;;;;;;1.05;59.78;99029.19;4967370;28;20068;-67
2024/01/30 01:33:26;;;;;;;0.20;0.20;;;;;;;0.31;59.37;98913.78;4967154;28;20240;-69
2024/01/30 01:35:53;;;;;;;0.20;0.20;;;;;;;1.10;59.75;99043.72;4966096;28;20047;-68
2024/01/30 01:38:20;;;;;;;0.20;0.20;;;;;;;0.68;60.29;98996.41;4966964;28;20050;-68
2024/01/30 01:40:46;;;;;;;0.20;0.20;;;;;;;1.02;60.78;99041.47;4966834;28;20055;-67
2024/01/30 01:43:13;;;;;;;0.20;0.20;;;;;;;1.14;61.28;99022.16;4965797;28;20051;-68
2024/01/30 01:45:40;;;;;;;0.20;0.20;;;;;;;1.19;61.84;99063.16;4967113;28;20051;-67
2024/01/30 01:48:08;;;;;;;0.20;0.20;;;;;;;0.63;61.74;98988.22;4966960;28;20162;-68
2024/01/30 01:50:36;;;;;;;0.20;0.20;;;;;;;0.49;61.75;98948.81;4967091;28;20086;-67
2024/01/30 01:53:05;;;;;;;0.25;0.25;;;;;;;0.62;61.54;98942.94;4967135;28;20564;-66
2024/01/30 01:55:32;;;;;;;0.20;0.20;;;;;;;1.15;62.25;99046.50;4966807;28;20054;-68
2024/01/30 01:57:59;;;;;;;0.20;0.20;;;;;;;0.63;62.48;98980.03;4967136;28;20061;-68
2024/01/30 02:00:26;;;;;;;0.20;0.20;;;;;;;1.21;62.08;99031.81;4966626;28;20141;-68
2024/01/30 02:02:54;;;;;;;0.20;0.20;;;;;;;0.62;62.91;98981.09;4965599;28;20085;-67
2024/01/30 02:05:21;;;;;;;0.20;0.20;;;;;;;1.14;62.11;99017.53;4964877;28;20426;-68
2024/01/30 02:07:48;;;;;;;0.20;0.20;;;;;;;1.29;61.69;99000.47;4966519;28;20069;-67
2024/01/30 02:10:15;;;;;;;0.20;0.20;;;;;;;1.17;61.83;99011.56;4966356;28;20576;-67
2024/01/30 02:12:42;;;;;;;0.20;0.20;;;;;;;1.58;61.14;99039.16;4966490;28;20074;-66
2024/01/30 02:15:13;;;;;;;0.20;0.20;;;;;;;1.68;61.41;99036.44;4965171;28;20128;-68
2024/01/30 02:17:40;;;;;;;0.20;0.20;;;;;;;1.64;61.07;99043.53;4965321;28;20053;-67
2024/01/30 02:20:08;;;;;;;0.20;0.20;;;;;;;1.39;61.49;98998.59;4964477;28;20062;-68
2024/01/30 02:22:37;;;;;;;0.20;0.20;;;;;;;1.51;62.03;99045.66;4964446;28;20424;-68
2024/01/30 02:25:04;;;;;;;0.20;0.20;;;;;;;1.67;61.36;99048.47;4966414;28;20064;-69
2024/01/30 02:27:31;;;;;;;0.20;0.20;;;;;;;1.54;62.59;99044.31;4966284;28;20051;-68
2024/01/30 02:29:59;;;;;;;0.20;0.20;;;;;;;1.53;62.81;99043.47;4966634;28;20051;-67
2024/01/30 02:32:25;;;;;;;0.20;0.20;;;;;;;1.62;62.16;99040.25;4966499;28;20488;-68
2024/01/30 02:34:52;;;;;;;0.20;0.20;;;;;;;1.39;62.69;99042.28;4965277;28;20129;-67
2024/01/30 02:37:19;;;;;;;0.20;0.20;;;;;;;1.29;63.34;99012.22;4966133;28;20047;-68
2024/01/30 02:39:46;;;;;;;0.20;0.20;;;;;;;1.04;63.26;98938.31;4966116;28;20055;-67
2024/01/30 02:42:12;;;;;;;0.20;0.20;;;;;;;1.65;62.47;99040.53;4965867;28;20058;-68
2024/01/30 02:44:39;;;;;;;0.20;0.20;;;;;;;1.36;63.18;98987.38;4964593;28;20078;-67
2024/01/30 02:47:06;;;;;;;0.20;0.20;;;;;;;1.85;62.02;99035.19;4965939;28;20505;-68
2024/01/30 02:49:33;;;;;;;0.20;0.20;;;;;;;1.58;62.19;98986.16;4965603;28;20088;-68
2024/01/30 02:52:00;;;;;;;0.20;0.20;;;;;;;1.87;61.70;99032.19;4964345;28;20494;-67
2024/01/30 02:54:27;;;;;;;0.20;0.20;;;;;;;1.22;61.24;98937.06;4965542;28;20063;-69
2024/01/30 02:56:53;;;;;;;0.20;0.20;;;;;;;2.01;62.17;99038.84;4964530;28;20053;-68
2024/01/30 02:59:20;;;;;;;0.20;0.20;;;;;;;1.41;61.90;98933.66;4965969;28;20062;-68
2024/01/30 03:01:47;;;;;;;0.20;0.20;;;;;;;2.07;61.35;99037.78;4965524;28;20051;-68
2024/01/30 03:04:14;;;;;;;0.20;0.20;;;;;;;1.86;61.88;99031.38;4964494;28;20062;-67
2024/01/30 03:06:47;;;;;;;0.20;0.20;;;;;;;1.89;62.53;98997.22;4965464;28;20069;-67
2024/01/30 03:09:17;;;;;;;0.20;0.20;;;;;;;1.40;61.60;98929.28;4965697;28;20050;-67
2024/01/30 03:11:44;;;;;;;0.20;0.20;;;;;;;1.86;62.82;99025.09;4966094;28;20066;-67
2024/01/30 03:14:11;;;;;;;0.20;0.20;;;;;;;1.82;62.99;99034.91;4965800;28;20433;-68
2024/01/30 03:16:38;;;;;;;0.20;0.20;;;;;;;1.79;62.64;99022.59;4964108;28;20092;-68
2024/01/30 03:19:07;;;;;;;0.22;0.22;;;;;;;1.79;62.83;99016.34;4965886;28;20046;-67
2024/01/30 03:21:34;;;;;;;0.25;0.25;;;;;;;1.51;63.79;99012.91;4965124;28;20063;-67
2024/01/30 03:24:01;;;;;;;0.20;0.20;;;;;;;0.95;64.16;98942.63;4965638;28;20061;-68
2024/01/30 03:26:28;;;;;;;0.20;0.20;;;;;;;1.44;63.57;99015.03;4965447;28;20117;-67
2024/01/30 03:28:55;;;;;;;0.20;0.20;;;;;;;1.49;62.88;99015.06;4963914;28;20062;-66
2024/01/30 03:31:21;;;;;;;0.30;0.30;;;;;;;1.42;63.23;99019.91;4965253;28;20485;-66
2024/01/30 03:33:48;;;;;;;0.20;0.20;;;;;;;1.43;63.20;99024.31;4963412;28;20440;-67
2024/01/30 03:36:16;;;;;;;0.20;0.20;;;;;;;1.54;63.07;99017.81;4964940;28;20063;-68
2024/01/30 03:38:43;;;;;;;0.20;0.20;;;;;;;1.30;63.66;98994.72;4964199;28;20053;-68
2024/01/30 03:41:10;;;;;;;0.20;0.20;;;;;;;1.29;62.43;98987.66;4965108;28;20063;-66
2024/01/30 03:43:37;;;;;;;0.20;0.20;;;;;;;0.99;62.22;98951.97;4965426;28;20070;-67
2024/01/30 03:46:04;;;;;;;0.20;0.20;;;;;;;1.26;61.72;99010.00;4963989;28;20047;-67
2024/01/30 03:48:31;;;;;;;0.20;0.20;;;;;;;1.20;62.73;99000.13;4963928;28;20569;-67
2024/01/30 03:50:57;;;;;;;0.20;0.20;;;;;;;1.36;61.91;99010.06;4965065;28;20055;-66
2024/01/30 03:53:24;;;;;;;0.20;0.20;;;;;;;0.96;60.55;98965.28;4965587;28;20489;-68
2024/01/30 03:55:51;;;;;;;0.20;0.20;;;;;;;0.91;62.05;98995.25;4965144;28;20202;-67
2024/01/30 03:58:18;;;;;;;0.20;0.20;;;;;;;1.08;62.33;99006.84;4963515;28;20462;-68
2024/01/30 04:00:45;;;;;;;0.20;0.20;;;;;;;1.14;62.16;99006.63;4964541;28;20065;-67
2024/01/30 04:03:12;;;;;;;0.20;0.20;;;;;;;1.32;61.85;98998.03;4963499;28;20117;-67
2024/01/30 04:05:38;;;;;;;0.20;0.20;;;;;;;1.23;60.92;99005.03;4963394;28;20078;-65
2024/01/30 04:08:06;;;;;;;0.20;0.20;;;;;;;1.08;61.00;99004.13;4979597;28;20062;-64
2024/01/30 04:10:32;;;;;;;0.20;0.20;;;;;;;1.01;60.58;98952.50;4965278;28;20094;-65
2024/01/30 04:13:00;;;;;;;0.20;0.20;;;;;;;1.01;60.43;98968.88;4965427;28;20054;-65
2024/01/30 04:15:29;;;;;;;0.20;0.20;;;;;;;1.30;61.12;98994.72;4963828;28;20059;-66
2024/01/30 04:17:59;;;;;;;0.20;0.20;;;;;;;1.29;61.26;98990.38;4965582;28;20059;-67
2024/01/30 04:20:26;;;;;;;0.20;0.20;;;;;;;1.35;60.77;99002.97;4965519;28;20054;-66
2024/01/30 04:22:53;;;;;;;0.20;0.20;;;;;;;1.34;60.25;98973.19;4965377;28;20152;-66
2024/01/30 04:25:20;;;;;;;0.20;0.20;;;;;;;1.37;60.43;98995.34;4963488;28;20506;-66
2024/01/30 04:27:47;;;;;;;0.20;0.20;;;;;;;1.42;59.81;99014.47;4965018;28;20498;-66
2024/01/30 04:30:14;;;;;;;0.20;0.20;;;;;;;1.19;59.63;98965.72;4964462;28;20057;-67
2024/01/30 04:32:40;;;;;;;0.20;0.20;;;;;;;1.44;59.94;99017.75;4963429;28;20051;-66
2024/01/30 04:35:07;;;;;;;0.20;0.20;;;;;;;1.47;60.11;99011.75;4963424;28;20050;-66
2024/01/30 04:37:37;;;;;;;0.20;0.20;;;;;;;1.41;60.46;99015.56;4964887;28;20147;-66
2024/01/30 04:40:05;;;;;;;0.20;0.20;;;;;;;1.32;60.25;99017.13;4979206;28;20065;-67
2024/01/30 04:42:32;;;;;;;0.20;0.20;;;;;;;1.26;61.02;99020.94;4965035;28;20066;-67
2024/01/30 04:44:59;;;;;;;0.20;0.20;;;;;;;0.92;61.01;98970.44;4966573;28;20090;-67
2024/01/30 04:47:26;;;;;;;0.20;0.20;;;;;;;1.35;61.22;99033.00;4968158;28;20063;-67
2024/01/30 04:49:53;;;;;;;0.20;0.20;;;;;;;1.45;60.78;99024.03;4966576;28;20077;-66
2024/01/30 04:52:20;;;;;;;0.20;0.20;;;;;;;1.31;60.55;99020.94;4967987;28;20054;-67
2024/01/30 04:54:47;;;;;;;0.20;0.20;;;;;;;1.44;61.06;99023.22;4968244;28;20162;-66
2024/01/30 04:57:14;;;;;;;0.20;0.20;;;;;;;1.47;61.25;99028.16;4968128;28;20051;-67
2024/01/30 04:59:41;;;;;;;0.20;0.20;;;;;;;1.36;60.95;99034.63;4966609;28;20054;-67
2024/01/30 05:02:07;;;;;;;0.20;0.20;;;;;;;0.90;61.69;98939.06;4967809;28;20059;-66
2024/01/30 05:04:35;;;;;;;0.22;0.22;;;;;;;1.38;61.83;99046.13;4967692;28;20113;-66
2024/01/30 05:07:02;;;;;;;0.25;0.25;;;;;;;0.58;61.97;98936.38;4966000;28;20063;-65
2024/01/30 05:09:28;;;;;;;0.20;0.20;;;;;;;1.41;61.77;99040.13;4967373;28;20095;-66
2024/01/30 05:11:55;;;;;;;0.20;0.20;;;;;;;1.54;62.01;99039.69;4967473;28;20063;-67
2024/01/30 05:14:22;;;;;;;0.20;0.20;;;;;;;1.37;62.43;99028.09;4966099;28;20061;-68
2024/01/30 05:16:49;;;;;;;0.20;0.20;;;;;;;1.21;63.31;99034.53;4967290;28;20054;-65
2024/01/30 05:19:17;;;;;;;0.20;0.20;;;;;;;1.21;63.79;99056.38;4967435;28;20050;-67
2024/01/30 05:21:44;;;;;;;0.20;0.20;;;;;;;0.95;62.80;98983.56;4967212;28;20473;-66
2024/01/30 05:24:11;;;;;;;0.20;0.20;;;;;;;1.24;63.64;99039.47;4967462;28;20069;-66
2024/01/30 05:26:38;;;;;;;0.20;0.20;;;;;;;1.16;64.48;99037.22;4965535;28;20065;-66
2024/01/30 05:29:05;;;;;;;0.20;0.20;;;;;;;1.15;64.87;99038.31;4967269;28;20097;-65
2024/01/30 05:31:32;;;;;;;0.20;0.20;;;;;;;-0.15;64.11;98783.69;4967538;28;20059;-66
2024/01/30 05:33:59;;;;;;;0.20;0.20;;;;;;;0.95;63.83;98974.56;4967337;28;20086;-65
2024/01/30 05:36:26;;;;;;;0.20;0.20;;;;;;;1.30;64.55;99046.59;4967437;28;20051;-66
2024/01/30 05:38:53;;;;;;;0.20;0.20;;;;;;;1.27;64.64;99038.94;4966927;28;20146;-65
2024/01/30 05:41:21;;;;;;;0.20;0.20;;;;;;;0.93;64.36;98966.63;4965691;28;20059;-66
2024/01/30 05:43:47;;;;;;;0.20;0.20;;;;;;;1.46;63.89;99051.09;4966626;28;20058;-69
2024/01/30 05:46:14;;;;;;;0.20;0.20;;;;;;;1.43;64.09;99054.34;4966697;28;20089;-59
2024/01/30 05:48:41;;;;;;;0.20;0.20;;;;;;;1.50;63.81;99054.94;4965196;28;20050;-59
2024/01/30 05:51:08;;;;;;;0.20;0.20;;;;;;;0.71;65.12;98985.00;4962387;28;20054;-60
2024/01/30 05:53:35;;;;;;;0.20;0.20;;;;;;;0.87;64.27;98985.97;4975014;28;20078;-60
2024/01/30 05:56:03;;;;;;;0.20;0.20;;;;;;;1.11;65.17;99055.44;4966395;28;20054;-62
2024/01/30 05:58:31;;;;;;;0.20;0.20;;;;;;;1.32;65.02;99057.25;4967179;28;20334;-60
2024/01/30 06:00:58;;;;;;;0.20;0.20;;;;;;;1.23;65.77;99062.38;4964859;28;20054;-59
2024/01/30 06:03:25;;;;;;;0.20;0.20;;;;;;;1.08;65.63;99047.78;4965280;28;20051;-60
2024/01/30 06:05:52;;;;;;;0.20;0.20;;;;;;;0.94;65.73;99028.31;4980891;28;20133;-60
2024/01/30 06:08:18;;;;;;;0.20;0.20;;;;;;;0.97;66.79;99070.59;4965062;28;20086;-59
2024/01/30 06:10:45;;;;;;;0.20;0.20;;;;;;;0.99;67.31;99073.91;4966812;28;20454;-60
2024/01/30 06:13:12;;;;;;;0.20;0.20;;;;;;;1.16;66.05;99080.03;4966471;28;20062;-60
2024/01/30 06:15:39;;;;;;;0.20;0.20;;;;;;;1.15;65.97;99078.41;4966614;28;20050;-60
2024/01/30 06:18:06;;;;;;;0.20;0.20;;;;;;;1.13;66.28;99075.13;4966685;28;20296;-61
2024/01/30 06:20:33;;;;;;;0.20;0.20;;;;;;;0.71;66.31;99009.53;4966551;28;20113;-60
2024/01/30 06:23:00;;;;;;;0.20;0.20;;;;;;;1.04;65.97;99085.66;4964966;28;20051;-59
2024/01/30 06:25:27;;;;;;;0.20;0.20;;;;;;;1.05;66.54;99084.59;4966497;28;20059;-60
2024/01/30 06:27:54;;;;;;;0.20;0.20;;;;;;;1.20;66.09;99082.00;4964808;28;20113;-60
2024/01/30 06:30:21;;;;;;;0.20;0.20;;;;;;;1.08;66.80;99084.09;4965858;28;20069;-61
2024/01/30 06:32:48;;;;;;;0.20;0.20;;;;;;;0.99;66.81;99096.56;4980990;28;20082;-62
2024/01/30 06:35:15;;;;;;;0.20;0.20;;;;;;;0.98;67.71;99083.19;4966008;28;20046;-59
2024/01/30 06:37:41;;;;;;;0.20;0.20;;;;;;;0.89;68.48;99091.00;4966046;28;20054;-57
2024/01/30 06:40:09;;;;;;;0.20;0.20;;;;;;;1.13;66.99;99070.50;4965584;28;20051;-59
2024/01/30 06:42:35;;;;;;;0.20;0.20;;;;;;;1.17;66.37;99068.88;4964642;28;20065;-59
2024/01/30 06:45:02;;;;;;;0.20;0.20;;;;;;;0.77;66.12;99033.06;4964277;28;20054;-59
2024/01/30 06:47:30;;;;;;;0.20;0.20;;;;;;;0.44;66.47;98994.28;4963978;28;20095;-71
2024/01/30 06:49:57;;;;;;;0.20;0.20;;;;;;;1.07;66.21;99071.53;4965551;28;20062;-66
2024/01/30 06:52:24;;;;;;;0.20;0.20;;;;;;;1.03;66.07;99048.56;4965743;28;20133;-67
2024/01/30 06:54:51;;;;;;;0.25;0.25;;;;;;;1.31;65.84;99082.91;4964120;28;20367;-60
2024/01/30 06:57:18;;;;;;;0.20;0.20;;;;;;;0.35;65.06;98963.94;4963924;28;20086;-61
2024/01/30 06:59:45;;;;;;;0.20;0.20;;;;;;;1.52;64.16;99082.81;4965164;28;20502;-62
2024/01/30 07:02:11;;;;;;;0.20;0.20;;;;;;;0.11;64.51;98899.97;4965283;28;20189;-67
2024/01/30 07:04:39;;;;;;;0.20;0.20;;;;;;;1.56;64.83;99080.38;4965664;28;20129;-62
2024/01/30 07:07:13;;;;;;;0.20;0.20;;;;;;;0.89;64.14;99057.44;4963996;28;20059;-61
2024/01/30 07:09:40;;;;;;;0.20;0.20;;;;;;;1.02;64.16;99040.63;4964388;28;20057;-61
2024/01/30 07:12:07;;;;;;;0.20;0.20;;;;;;;1.28;63.63;99105.28;4964752;28;20102;-61
2024/01/30 07:14:35;;;;;;;0.20;0.20;;;;;;;1.42;64.35;99079.97;4965088;28;20065;-61
2024/01/30 07:17:02;;;;;;;0.20;0.20;;;;;;;1.65;63.23;99072.50;4963243;28;20055;-61
2024/01/30 07:19:29;;;;;;;0.20;0.20;;;;;;;1.03;62.26;98988.53;4963589;28;20057;-66
2024/01/30 07:21:56;;;;;;;0.20;0.20;;;;;;;1.11;62.77;99007.16;4963657;28;20493;-72
2024/01/30 07:24:23;;;;;;;0.20;0.20;;;;;;;1.53;62.71;99078.97;4962045;28;20054;-63
2024/01/30 07:26:50;;;;;;;0.20;0.20;;;;;;;1.68;62.35;99104.75;4962899;28;20053;-58
2024/01/30 07:29:17;;;;;;;0.20;0.20;;;;;;;1.21;61.94;99018.16;4963888;28;20524;-67
2024/01/30 07:31:43;;;;;;;0.20;0.20;;;;;;;1.85;61.95;99099.97;4964226;28;20526;-65
2024/01/30 07:34:10;;;;;;;0.20;0.20;;;;;;;1.78;62.08;99099.34;4963971;28;20544;-59
2024/01/30 07:36:37;;;;;;;0.20;0.20;;;;;;;1.63;62.20;99102.00;4964398;28;20130;-60
2024/01/30 07:39:05;;;;;;;0.20;0.20;;;;;;;-2.42;62.99;98532.16;4967150;28;20139;-62
2024/01/30 07:41:32;;;;;;;0.20;0.20;;;;;;;1.29;62.84;99091.38;4963582;28;20501;-63
2024/01/30 07:43:59;;;;;;;0.20;0.20;;;;;;;1.46;62.92;99097.50;4964622;28;20054;-61
2024/01/30 07:46:26;;;;;;;0.20;0.20;;;;;;;0.45;62.27;98904.06;4962849;28;20065;-64
2024/01/30 07:48:53;;;;;;;0.20;0.20;;;;;;;1.66;62.29;99090.53;4962835;28;20086;-62
2024/01/30 07:51:21;;;;;;;0.20;0.20;;;;;;;1.54;61.94;99034.22;4964713;28;20050;-64
2024/01/30 07:53:48;;;;;;;0.20;0.20;;;;;;;1.49;60.42;99008.78;4964761;28;20061;-68
2024/01/30 07:56:15;;;;;;;0.20;0.20;;;;;;;1.81;60.73;99079.69;4959208;28;20078;-66
2024/01/30 07:58:42;;;;;;;0.20;0.20;;;;;;;1.85;60.29;99075.38;4969078;28;20046;-60
2024/01/30 08:01:09;;;;;;;0.20;0.20;;;;;;;2.07;60.34;99065.09;4963183;28;20504;-61
2024/01/30 08:03:36;;;;;;;0.20;0.20;;;;;;;1.26;60.99;98977.25;4965645;28;20046;-61
2024/01/30 08:06:04;;;;;;;0.20;0.20;;;;;;;2.05;60.25;99061.81;4964212;28;20050;-62
2024/01/30 08:08:30;;;;;;;0.20;0.20;;;;;;;2.15;59.29;99072.78;4962569;28;20062;-64
2024/01/30 08:10:57;;;;;;;0.30;0.30;;;;;;;1.66;59.83;98975.84;4962691;28;20072;-62
2024/01/30 08:13:24;;;;;;;0.20;0.20;;;;;;;1.56;60.13;99007.44;4964349;28;20134;-62
2024/01/30 08:15:51;;;;;;;0.20;0.20;;;;;;;1.99;59.80;99080.06;4963859;28;20055;-67
2024/01/30 08:18:18;;;;;;;0.20;0.20;;;;;;;2.22;59.17;99073.34;4963527;28;20125;-60
2024/01/30 08:20:45;;;;;;;0.20;0.20;;;;;;;2.36;59.17;99069.03;4968048;28;20050;-61
2024/01/30 08:23:12;;;;;;;0.20;0.20;;;;;;;2.23;58.55;99061.34;4967882;28;20046;-62
2024/01/30 08:25:39;;;;;;;0.20;0.20;;;;;;;2.26;58.57;99053.41;4967912;28;20061;-59
2024/01/30 08:28:07;;;;;;;0.20;0.20;;;;;;;1.47;58.94;98962.63;4967934;28;20097;-62
2024/01/30 08:30:34;;;;;;;0.20;0.20;;;;;;;1.94;59.49;99060.09;4966557;28;20434;-65
2024/01/30 08:33:00;;;;;;;0.20;0.20;;;;;;;2.10;60.00;99053.63;4967925;28;20051;-68
2024/01/30 08:35:28;;;;;;;0.20;0.20;;;;;;;1.33;59.02;98901.38;4967395;28;20211;-65
2024/01/30 08:37:55;;;;;;;0.20;0.20;;;;;;;1.96;59.41;99047.00;4968727;28;20053;-62
2024/01/30 08:40:21;;;;;;;0.20;0.20;;;;;;;1.24;59.87;98943.94;4968078;28;20134;-63
2024/01/30 08:42:48;;;;;;;0.20;0.20;;;;;;;2.12;59.44;99062.41;4967612;28;20162;-61
2024/01/30 08:45:15;;;;;;;0.20;0.20;;;;;;;2.10;59.60;99065.41;4969350;28;20058;-64
2024/01/30 08:47:42;;;;;;;0.20;0.20;;;;;;;1.20;59.82;98970.09;4953146;28;20051;-61
2024/01/30 08:50:09;;;;;;;0.20;0.20;;;;;;;1.64;60.15;99049.00;4956333;28;20452;-63
2024/01/30 08:52:37;;;;;;;0.20;0.20;;;;;;;0.88;58.86;98947.50;4968100;28;20054;-64
2024/01/30 08:55:04;;;;;;;0.20;0.20;;;;;;;2.09;59.49;99068.38;4969278;28;20131;-64
2024/01/30 08:57:31;;;;;;;0.20;0.20;;;;;;;2.16;59.58;99063.50;4966164;28;20086;-67
2024/01/30 08:59:58;;;;;;;0.20;0.20;;;;;;;2.13;59.45;99074.97;4967861;28;20051;-59
2024/01/30 09:02:25;;;;;;;0.20;0.20;;;;;;;1.63;58.68;98959.97;4967669;28;20050;-64
2024/01/30 09:04:52;;;;;;;0.20;0.20;;;;;;;2.20;59.45;99075.53;4967683;28;20051;-63
2024/01/30 09:07:19;;;;;;;0.28;0.28;;;;;;;2.06;59.05;99079.84;4966598;28;20063;-60
2024/01/30 09:09:46;;;;;;;0.28;0.28;;;;;;;1.85;59.36;99023.47;4967582;28;20156;-60
2024/01/30 09:12:12;;;;;;;0.20;0.20;;;;;;;2.62;58.41;99073.50;4965611;28;20055;-64
2024/01/30 09:14:41;;;;;;;0.20;0.20;;;;;;;2.20;57.20;99008.00;4965657;28;20517;-61
2024/01/30 09:17:08;;;;;;;0.20;0.20;;;;;;;2.41;57.18;99022.56;4967117;28;20113;-73
2024/01/30 09:19:35;;;;;;;0.20;0.20;;;;;;;1.03;57.24;98819.38;4967349;28;20058;-65
2024/01/30 09:22:02;;;;;;;0.20;0.20;;;;;;;2.01;58.08;99066.97;4965508;28;20422;-63
2024/01/30 09:24:29;;;;;;;0.20;0.20;;;;;;;2.08;58.64;99061.25;4967047;28;20054;-62
2024/01/30 09:26:56;;;;;;;0.25;0.25;;;;;;;1.95;57.53;99013.38;4965323;28;20117;-63
2024/01/30 09:29:23;;;;;;;0.20;0.20;;;;;;;2.16;58.63;99047.09;4965224;28;20214;-65
2024/01/30 09:31:50;;;;;;;0.20;0.20;;;;;;;2.30;58.02;99059.16;4965039;28;20042;-61
2024/01/30 09:34:17;;;;;;;0.20;0.20;;;;;;;1.74;57.87;98945.28;4965830;28;20050;-60
2024/01/30 09:36:44;;;;;;;0.20;0.20;;;;;;;2.31;57.86;99074.50;4967003;28;20142;-64
2024/01/30 09:39:11;;;;;;;0.20;0.20;;;;;;;2.44;57.85;99068.50;4965396;28;20149;-63
2024/01/30 09:41:48;;;;;;;0.20;0.20;;;;;;;2.30;58.40;99064.63;4966596;28;20177;-61
2024/01/30 09:44:20;;;;;;;0.20;0.20;;;;;;;1.80;57.59;99009.78;4966497;28;20105;-61
2024/01/30 09:46:48;;;;;;;0.20;0.20;;;;;;;1.90;56.94;98999.69;4966522;28;20501;-62
2024/01/30 09:49:16;;;;;;;0.20;0.20;;;;;;;1.96;57.71;98986.91;4964786;28;20047;-63
2024/01/30 09:51:45;;;;;;;0.20;0.20;;;;;;;2.54;56.31;99069.38;4966585;28;20055;-63
2024/01/30 09:54:14;;;;;;;0.20;0.20;;;;;;;1.44;56.52;98918.63;4965135;28;20498;-65
2024/01/30 09:56:41;;;;;;;0.20;0.20;;;;;;;2.37;55.95;99054.28;4957844;28;20437;-64
2024/01/30 09:59:08;;;;;;;0.30;0.30;;;;;;;2.21;56.42;99050.69;4981060;28;20051;-60
2024/01/30 10:01:36;;;;;;;0.20;0.20;;;;;;;1.45;56.61;98903.91;4965887;28;20060;-61
2024/01/30 10:04:04;;;;;;;0.20;0.20;;;;;;;2.02;57.80;99052.25;4966351;28;20078;-62
2024/01/30 10:06:31;;;;;;;0.30;0.30;;;;;;;2.07;57.67;99026.84;4965573;28;20047;-63
2024/01/30 10:08:58;;;;;;;0.20;0.20;;;;;;;1.97;58.29;99060.41;4965905;28;20070;-60
2024/01/30 10:11:25;;;;;;;0.20;0.20;;;;;;;1.33;58.59;98983.28;4964154;28;20059;-64
2024/01/30 10:13:51;;;;;;;0.20;0.20;;;;;;;0.47;58.60;98874.66;4965229;28;20064;-62
2024/01/30 10:16:18;;;;;;;0.20;0.20;;;;;;;1.60;58.89;98998.75;4965636;28;20537;-60
2024/01/30 10:18:45;;;;;;;0.20;0.20;;;;;;;2.06;58.63;99055.22;4966100;28;20178;-62
2024/01/30 10:21:12;;;;;;;0.30;0.30;;;;;;;1.88;58.33;99033.84;4964159;28;20046;-62
2024/01/30 10:23:39;;;;;;;0.20;0.20;;;;;;;1.74;59.00;99049.88;4966172;28;20121;-62
2024/01/30 10:26:07;;;;;;;0.20;0.20;;;;;;;1.66;57.83;98978.56;4963996;28;20082;-59
2024/01/30 10:28:34;;;;;;;0.20;0.20;;;;;;;2.49;56.76;99041.19;4965132;28;20050;-62
2024/01/30 10:31:05;;;;;;;0.20;0.20;;;;;;;2.85;57.10;99046.47;4965478;28;20115;-61
2024/01/30 10:33:33;;;;;;;0.20;0.20;;;;;;;2.37;56.86;99025.00;4965327;28;20150;-63
2024/01/30 10:36:05;;;;;;;0.20;0.20;;;;;;;1.35;56.62;98861.00;4963945;28;20058;-59
2024/01/30 10:38:33;;;;;;;0.20;0.20;;;;;;;1.68;57.72;98968.16;4965056;28;20059;-60
2024/01/30 10:41:01;;;;;;;0.20;0.20;;;;;;;1.82;57.75;99029.47;4996051;28;20141;-58
2024/01/30 10:43:47;;;;;;;0.20;0.20;;;;;;;2.16;57.96;98981.50;4964319;28;20054;-59
2024/01/30 10:46:21;;;;;;;0.30;0.30;;;;;;;2.88;56.65;99039.63;4963513;28;20596;-59
2024/01/30 10:48:58;;;;;;;0.20;0.20;;;;;;;2.98;55.39;99015.00;4963871;28;20114;-62
2024/01/30 10:51:27;;;;;;;0.20;0.20;;;;;;;2.75;55.52;98996.38;4965178;28;20054;-58
2024/01/30 10:53:56;;;;;;;0.20;0.20;;;;;;;2.95;55.75;99034.72;4964670;28;20454;-58
2024/01/30 10:56:25;;;;;;;0.20;0.20;;;;;;;2.47;55.69;98977.72;4964954;28;20051;-60
2024/01/30 10:58:53;;;;;;;0.20;0.20;;;;;;;2.78;57.15;99002.13;4968649;28;20129;-59
2024/01/30 11:01:22;;;;;;;0.20;0.20;;;;;;;2.50;55.75;98930.69;4970220;28;20050;-61
2024/01/30 11:03:54;;;;;;;0.20;0.20;;;;;;;3.12;56.16;99002.41;4982620;28;20056;-63
2024/01/30 11:06:25;;;;;;;0.20;0.20;;;;;;;3.59;55.39;99019.31;4980899;28;20515;-59
2024/01/30 11:09:10;;;;;;;0.28;0.28;;;;;;;2.97;53.96;98915.63;4982592;28;20061;-63
2024/01/30 11:11:59;;;;;;;0.20;0.20;;;;;;;2.96;54.37;98970.66;4984079;28;20054;-60
2024/01/30 11:14:29;;;;;;;0.20;0.20;;;;;;;3.42;54.46;98980.47;4983173;28;20510;-64
2024/01/30 11:16:59;;;;;;;0.20;0.20;;;;;;;3.44;54.62;98978.28;4984087;28;20054;-63
2024/01/30 11:19:27;;;;;;;0.20;0.20;;;;;;;2.85;55.01;98991.72;4984432;28;20126;-63
2024/01/30 11:21:57;;;;;;;0.20;0.20;;;;;;;2.18;54.60;98891.84;4984084;28;20050;-63
2024/01/30 11:24:24;;;;;;;0.20;0.20;;;;;;;2.71;55.18;98987.91;4984563;28;20147;-63
2024/01/30 11:26:58;;;;;;;0.30;0.30;;;;;;;2.78;55.32;99001.31;4984097;28;20132;-63
2024/01/30 11:29:27;;;;;;;0.20;0.20;;;;;;;3.10;55.41;98982.69;4982998;28;20058;-63
2024/01/30 11:31:55;;;;;;;0.20;0.20;;;;;;;3.14;54.98;98978.31;4980340;28;20587;-63
2024/01/30 11:34:23;;;;;;;0.30;0.30;;;;;;;3.00;54.77;98971.75;4965296;28;20059;-60
2024/01/30 11:37:03;;;;;;;0.20;0.20;;;;;;;2.97;55.74;98964.91;4963840;28;20573;-63
2024/01/30 11:39:30;;;;;;;0.30;0.30;;;;;;;2.74;55.10;98912.63;4964497;28;20109;-60
2024/01/30 11:41:58;;;;;;;0.20;0.20;;;;;;;3.05;55.40;98955.34;4962829;28;20063;-63